Time;durP1;ratioP1;P1;durP2;ratioP2;P2;SDS_P1;SDS_P2;PMS_P1;PMS_P2;Temp;Humidity;BMP_temperature;BMP_pressure;BME280_temperature;BME280_humidity;BME280_pressure;Samples;Min_cycle;Max_cycle;Signal;HPM_P1;HPM_P2
2021/10/27 00:00:50;;;;;;;0.10;0.10;;;;;;;11.29;100.00;101938.38;10286862;28;20271;-74
2021/10/27 00:05:50;;;;;;;0.10;0.10;;;;;;;11.28;100.00;101931.34;10286448;28;20018;-73
2021/10/27 00:10:51;;;;;;;0.10;0.10;;;;;;;11.23;100.00;101935.44;10279898;28;20030;-73
2021/10/27 00:15:51;;;;;;;0.10;0.10;;;;;;;11.22;100.00;101939.06;10286426;28;20273;-74
2021/10/27 00:20:52;;;;;;;0.10;0.10;;;;;;;11.24;100.00;101937.09;10286185;28;20474;-73
2021/10/27 00:25:52;;;;;;;0.08;0.08;;;;;;;11.28;100.00;101931.34;10278966;28;20470;-73
2021/10/27 00:30:53;;;;;;;0.10;0.10;;;;;;;11.33;100.00;101938.94;10271057;28;20409;-73
2021/10/27 00:35:53;;;;;;;0.05;0.05;;;;;;;11.37;100.00;101939.50;10280850;28;20031;-73
2021/10/27 00:40:54;;;;;;;0.10;0.10;;;;;;;11.40;100.00;101944.56;10282324;28;20023;-72
2021/10/27 00:45:54;;;;;;;0.10;0.10;;;;;;;11.40;100.00;101931.22;10286567;28;20035;-73
2021/10/27 00:50:55;;;;;;;0.03;0.03;;;;;;;11.42;100.00;101932.78;10282530;28;20019;-73
2021/10/27 00:55:55;;;;;;;0.03;0.03;;;;;;;11.42;100.00;101938.13;10287139;28;20045;-73
2021/10/27 01:00:56;;;;;;;0.10;0.10;;;;;;;11.44;100.00;101938.84;10291559;28;20105;-74
2021/10/27 01:05:57;;;;;;;0.10;0.10;;;;;;;11.46;100.00;101939.53;10293337;28;20023;-73
2021/10/27 01:10:57;;;;;;;0.10;0.10;;;;;;;11.49;100.00;101938.41;10284096;28;20026;-73
2021/10/27 01:15:58;;;;;;;0.10;0.10;;;;;;;11.54;100.00;101941.50;10288152;28;20278;-72
2021/10/27 01:20:58;;;;;;;0.10;0.10;;;;;;;11.55;99.89;101936.03;10292642;28;20437;-73
2021/10/27 01:26:05;;;;;;;0.10;0.10;;;;;;;11.59;99.92;101939.28;10292714;28;20030;-72
2021/10/27 01:31:05;;;;;;;0.10;0.10;;;;;;;11.59;99.82;101941.94;10282628;28;20077;-74
2021/10/27 01:36:06;;;;;;;0.10;0.10;;;;;;;11.62;99.83;101939.00;10289436;28;20535;-74
2021/10/27 01:41:07;;;;;;;0.10;0.10;;;;;;;11.62;99.98;101944.31;10287168;28;20061;-73
2021/10/27 01:46:07;;;;;;;0.00;0.00;;;;;;;11.63;99.97;101940.66;10291000;28;20387;-73
2021/10/27 01:51:07;;;;;;;0.00;0.00;;;;;;;11.66;99.98;101937.72;10291473;28;20025;-73
2021/10/27 01:56:08;;;;;;;0.10;0.10;;;;;;;11.69;99.59;101931.25;10286360;28;20054;-73
2021/10/27 02:01:08;;;;;;;0.10;0.10;;;;;;;11.71;99.65;101937.31;10288546;28;20233;-73
2021/10/27 02:06:09;;;;;;;0.00;0.00;;;;;;;11.70;99.64;101932.97;10291163;28;20262;-73
2021/10/27 02:11:09;;;;;;;0.10;0.10;;;;;;;11.71;99.81;101932.81;10280459;28;20094;-73
2021/10/27 02:16:10;;;;;;;0.00;0.00;;;;;;;11.74;99.83;101937.88;10288342;28;20042;-73
2021/10/27 02:21:10;;;;;;;0.10;0.10;;;;;;;11.76;99.58;101935.06;10279958;28;20636;-73
2021/10/27 02:26:10;;;;;;;0.10;0.10;;;;;;;11.75;99.54;101923.56;10279571;28;20406;-73
2021/10/27 02:31:11;;;;;;;0.10;0.10;;;;;;;11.77;99.64;101921.56;10289959;28;20019;-73
2021/10/27 02:36:11;;;;;;;0.10;0.10;;;;;;;11.77;99.92;101913.56;10289739;28;20077;-72
2021/10/27 02:41:13;;;;;;;0.10;0.10;;;;;;;11.78;100.00;101922.44;10289941;28;20015;-72
2021/10/27 02:46:13;;;;;;;0.00;0.00;;;;;;;11.80;99.80;101912.44;10290262;28;20037;-72
2021/10/27 02:51:14;;;;;;;0.10;0.10;;;;;;;11.81;100.00;101914.16;10286069;28;20025;-73
2021/10/27 02:56:14;;;;;;;0.07;0.07;;;;;;;11.82;100.00;101896.31;10289651;28;20038;-72
2021/10/27 03:01:14;;;;;;;0.00;0.00;;;;;;;11.84;99.93;101886.31;10288742;28;20276;-72
2021/10/27 03:06:15;;;;;;;0.03;0.03;;;;;;;11.84;100.00;101894.31;10289960;28;20043;-72
2021/10/27 03:11:15;;;;;;;0.10;0.10;;;;;;;11.85;100.00;101901.38;10285283;28;20550;-72
2021/10/27 03:16:15;;;;;;;0.00;0.00;;;;;;;11.86;100.00;101901.22;10288893;28;20038;-72
2021/10/27 03:21:15;;;;;;;0.10;0.10;;;;;;;11.86;100.00;101916.41;10284620;28;20018;-72
2021/10/27 03:26:16;;;;;;;0.10;0.10;;;;;;;11.85;99.94;101904.03;10288285;28;20382;-72
2021/10/27 03:31:16;;;;;;;0.10;0.10;;;;;;;11.83;100.00;101925.50;10284306;28;20695;-72
2021/10/27 03:36:17;;;;;;;0.10;0.10;;;;;;;11.85;100.00;101928.06;10281516;28;20027;-73
2021/10/27 03:41:17;;;;;;;0.10;0.10;;;;;;;11.87;100.00;101929.63;10269871;28;20437;-72
2021/10/27 03:46:17;;;;;;;0.10;0.10;;;;;;;11.88;99.86;101938.47;10278592;28;20026;-74
2021/10/27 03:51:18;;;;;;;0.00;0.00;;;;;;;11.87;100.00;101950.13;10286046;28;20286;-72
2021/10/27 03:56:19;;;;;;;0.10;0.10;;;;;;;11.89;100.00;101958.84;10279555;28;20039;-73
2021/10/27 04:01:20;;;;;;;0.10;0.10;;;;;;;11.90;99.81;101948.03;10241149;28;20431;-72
2021/10/27 04:06:21;;;;;;;0.10;0.10;;;;;;;11.92;99.76;101959.41;10271849;28;20470;-72
2021/10/27 04:11:21;;;;;;;0.10;0.10;;;;;;;11.95;99.97;101955.63;10284847;28;20018;-71
2021/10/27 04:16:21;;;;;;;0.00;0.00;;;;;;;11.96;99.56;101944.81;10288081;28;20034;-73
2021/10/27 04:21:22;;;;;;;0.10;0.10;;;;;;;12.00;99.66;101958.72;10274569;28;20367;-73
2021/10/27 04:26:22;;;;;;;0.03;0.03;;;;;;;11.99;99.70;101933.00;10293855;28;20027;-74
2021/10/27 04:31:23;;;;;;;0.10;0.10;;;;;;;12.00;99.41;101926.66;10293233;28;20015;-73
2021/10/27 04:36:23;;;;;;;0.10;0.10;;;;;;;12.02;99.27;101934.56;10287897;28;20037;-73
2021/10/27 04:41:24;;;;;;;0.10;0.10;;;;;;;11.99;99.50;101923.16;10282881;28;20027;-73
2021/10/27 04:46:24;;;;;;;0.10;0.10;;;;;;;11.99;99.31;101943.69;10287347;28;20086;-72
2021/10/27 04:51:25;;;;;;;0.00;0.00;;;;;;;11.99;99.56;101957.03;10282683;28;20034;-73
2021/10/27 04:56:25;;;;;;;0.10;0.10;;;;;;;11.99;99.46;101967.72;10278331;28;20093;-72
2021/10/27 05:01:25;;;;;;;0.10;0.10;;;;;;;12.00;99.64;101977.41;10280720;28;20277;-72
2021/10/27 05:06:26;;;;;;;0.10;0.10;;;;;;;12.02;99.45;101967.44;10281740;28;20023;-72
2021/10/27 05:11:26;;;;;;;0.10;0.10;;;;;;;12.04;99.24;101964.59;10284241;28;20019;-72
2021/10/27 05:16:27;;;;;;;0.10;0.10;;;;;;;12.05;99.22;101971.66;10307463;22;20030;-70
2021/10/27 05:21:27;;;;;;;0.10;0.10;;;;;;;12.07;99.31;101964.31;10328061;28;20117;-70
2021/10/27 05:26:28;;;;;;;0.10;0.10;;;;;;;12.08;99.58;101971.38;10327077;28;20015;-70
2021/10/27 05:31:28;;;;;;;0.10;0.10;;;;;;;12.09;99.54;101968.53;10306694;28;20501;-68
2021/10/27 05:36:29;;;;;;;0.10;0.10;;;;;;;12.10;99.87;101953.34;10295147;28;20106;-68
2021/10/27 05:41:31;;;;;;;0.10;0.10;;;;;;;12.07;99.80;101959.84;10287878;28;20026;-69
2021/10/27 05:46:31;;;;;;;0.08;0.08;;;;;;;12.07;100.00;101967.00;10289195;28;20077;-68
2021/10/27 05:51:52;;;;;;;0.10;0.10;;;;;;;12.06;100.00;101965.31;10291292;28;20421;-68
2021/10/27 05:56:53;;;;;;;0.00;0.00;;;;;;;12.07;100.00;101975.00;10288401;28;20015;-68
2021/10/27 06:01:53;;;;;;;0.10;0.10;;;;;;;12.08;100.00;101969.53;10296964;28;20019;-71
2021/10/27 06:06:53;;;;;;;0.00;0.00;;;;;;;12.10;100.00;101980.94;10295096;28;20075;-68
2021/10/27 06:11:58;;;;;;;0.10;0.10;;;;;;;12.13;100.00;101966.44;10291588;28;20356;-68
2021/10/27 06:16:58;;;;;;;0.10;0.10;;;;;;;12.12;100.00;101968.25;10303634;28;20030;-68
2021/10/27 06:21:59;;;;;;;0.10;0.10;;;;;;;12.13;100.00;101983.31;10300588;28;20022;-69
2021/10/27 06:26:59;;;;;;;0.10;0.10;;;;;;;12.14;100.00;101971.66;10309071;28;20371;-68
2021/10/27 06:37:34;;;;;;;0.10;0.10;;;;;;;12.15;100.00;101985.84;10330312;28;20026;-68
2021/10/27 06:48:13;;;;;;;0.00;0.00;;;;;;;12.15;100.00;101994.69;10312754;28;20599;-70
2021/10/27 06:53:14;;;;;;;0.10;0.10;;;;;;;12.17;100.00;101986.53;10297803;28;20034;-69
2021/10/27 06:58:18;;;;;;;0.10;0.10;;;;;;;12.18;100.00;101980.22;10315851;28;20039;-69
2021/10/27 07:18:59;;;;;;;0.00;0.00;;;;;;;12.26;100.00;102003.56;10306469;28;20026;-70
2021/10/27 07:24:01;;;;;;;0.10;0.10;;;;;;;12.27;100.00;102013.25;10298365;28;20030;-69
2021/10/27 07:29:03;;;;;;;0.10;0.10;;;;;;;12.32;100.00;102021.69;10323638;28;20477;-69
2021/10/27 07:34:09;;;;;;;0.08;0.08;;;;;;;12.35;100.00;102021.41;10325280;28;20082;-69
2021/10/27 07:44:48;;;;;;;0.05;0.05;;;;;;;12.42;100.00;102034.06;10269133;28;20034;-69
2021/10/27 07:49:49;;;;;;;0.10;0.10;;;;;;;12.46;100.00;102037.28;10286582;28;20031;-69
2021/10/27 07:54:49;;;;;;;0.10;0.10;;;;;;;12.48;100.00;102038.00;10302051;28;20446;-70
2021/10/27 07:59:49;;;;;;;0.00;0.00;;;;;;;12.52;100.00;102057.25;10305200;28;20022;-69
2021/10/27 08:04:50;;;;;;;0.00;0.00;;;;;;;12.54;100.00;102047.28;10298378;28;20563;-69
2021/10/27 08:09:50;;;;;;;0.10;0.10;;;;;;;12.58;100.00;102054.84;10298284;28;20019;-69
2021/10/27 08:14:51;;;;;;;0.10;0.10;;;;;;;12.65;100.00;102055.97;10315320;28;20113;-70
2021/10/27 08:19:52;;;;;;;0.10;0.10;;;;;;;12.72;100.00;102058.09;10307192;28;20085;-70
2021/10/27 08:24:53;;;;;;;0.00;0.00;;;;;;;12.77;100.00;102058.47;10313005;28;20029;-69
2021/10/27 08:29:54;;;;;;;0.10;0.10;;;;;;;12.81;100.00;102060.72;10299431;28;20023;-69
2021/10/27 08:34:55;;;;;;;0.00;0.00;;;;;;;12.85;100.00;102061.28;10303336;28;20113;-69
2021/10/27 08:39:56;;;;;;;0.10;0.10;;;;;;;12.87;100.00;102070.84;10286919;28;20110;-70
2021/10/27 08:44:56;;;;;;;0.00;0.00;;;;;;;12.90;100.00;102070.56;10325241;28;20021;-69
2021/10/27 08:49:58;;;;;;;0.10;0.10;;;;;;;12.94;100.00;102065.75;10304588;28;20027;-69
2021/10/27 08:54:58;;;;;;;0.10;0.10;;;;;;;12.97;100.00;102075.31;10298278;28;20019;-69
2021/10/27 09:00:05;;;;;;;0.10;0.10;;;;;;;12.99;100.00;102076.88;10283025;28;20019;-70
2021/10/27 09:05:31;;;;;;;0.00;0.00;;;;;;;13.00;100.00;102070.56;10304908;28;20053;-70
2021/10/27 09:16:09;;;;;;;0.10;0.10;;;;;;;13.04;100.00;102076.44;10292303;28;20070;-70
2021/10/27 09:42:52;;;;;;;0.10;0.10;;;;;;;13.27;100.00;102068.97;10308303;28;20022;-69
2021/10/27 10:09:11;;;;;;;0.10;0.10;;;;;;;13.58;99.83;102069.50;10312103;28;20113;-69
2021/10/27 10:14:13;;;;;;;0.10;0.10;;;;;;;13.66;99.22;102072.28;10313502;28;20030;-69
2021/10/27 10:19:16;;;;;;;0.10;0.10;;;;;;;13.74;98.59;102079.59;10307591;28;20187;-68
2021/10/27 10:24:17;;;;;;;0.10;0.10;;;;;;;13.80;98.44;102081.66;10295576;28;20034;-69
2021/10/27 10:29:47;;;;;;;0.00;0.00;;;;;;;13.81;97.79;102083.34;10289259;28;20395;-68
2021/10/27 10:34:53;;;;;;;0.10;0.10;;;;;;;13.82;98.25;102093.06;10298475;28;20030;-67
2021/10/27 10:39:55;;;;;;;0.10;0.10;;;;;;;13.85;97.98;102100.81;10303003;28;20026;-68
2021/10/27 10:55:27;;;;;;;0.00;0.00;;;;;;;13.89;97.69;102099.50;10293492;28;20034;-69
2021/10/27 11:39:31;;;;;;;0.10;0.10;;;;;;;14.30;95.56;102107.13;10330305;28;20421;-72
2021/10/27 11:44:09;;;;;;;0.10;0.10;;;;;;;14.26;95.19;102107.44;10354215;28;20057;-72
2021/10/27 11:49:10;;;;;;;0.00;0.00;;;;;;;14.19;95.54;102118.91;10361746;28;20033;-72
2021/10/27 11:54:13;;;;;;;0.10;0.10;;;;;;;14.08;95.99;102113.75;10355735;28;20373;-71
2021/10/27 11:59:13;;;;;;;0.10;0.10;;;;;;;13.97;95.91;102120.19;10323089;28;20025;-73
2021/10/27 12:04:15;;;;;;;0.10;0.10;;;;;;;13.88;96.70;102113.91;10348663;28;20029;-74
2021/10/27 12:19:40;;;;;;;0.10;0.10;;;;;;;13.85;96.85;102108.00;10350375;28;20022;-74
2021/10/27 12:24:41;;;;;;;0.10;0.10;;;;;;;13.86;97.12;102097.13;10350492;28;20026;-72
2021/10/27 12:29:42;;;;;;;0.00;0.00;;;;;;;13.84;96.96;102101.78;10338108;28;20032;-72
2021/10/27 12:34:54;;;;;;;0.10;0.10;;;;;;;13.78;97.38;102097.03;10329927;28;20033;-73
2021/10/27 12:40:13;;;;;;;0.10;0.10;;;;;;;13.66;98.47;102093.69;10340938;28;20056;-72
2021/10/27 12:45:14;;;;;;;0.10;0.10;;;;;;;13.53;99.09;102087.88;10333816;28;20028;-72
2021/10/27 12:50:19;;;;;;;0.10;0.10;;;;;;;13.46;98.70;102098.28;10342448;28;20023;-72
2021/10/27 12:55:34;;;;;;;0.03;0.03;;;;;;;13.45;99.14;102088.59;10349496;28;20544;-73
2021/10/27 13:06:02;;;;;;;0.03;0.03;;;;;;;13.46;98.91;102086.75;10365701;28;20017;-72
2021/10/27 13:16:39;;;;;;;0.10;0.10;;;;;;;13.48;98.78;102084.78;10339920;28;20101;-72
2021/10/27 13:31:59;;;;;;;0.10;0.10;;;;;;;13.45;98.65;102091.28;10340330;28;20034;-71
2021/10/27 13:37:01;;;;;;;0.10;0.10;;;;;;;13.49;98.50;102095.31;10341903;28;20026;-72
2021/10/27 13:42:08;;;;;;;0.10;0.10;;;;;;;13.55;98.55;102081.34;10356396;28;20492;-73
2021/10/27 14:08:10;;;;;;;0.10;0.10;;;;;;;13.72;96.98;102060.13;10360117;28;20018;-72
2021/10/27 14:13:20;;;;;;;0.10;0.10;;;;;;;13.72;96.19;102058.28;10351768;28;20026;-72
2021/10/27 15:21:43;;;;;;;0.00;0.00;;;;;;;13.49;93.61;102078.44;10329457;28;20026;-72
2021/10/27 15:32:42;;;;;;;0.00;0.00;;;;;;;13.46;93.34;102074.22;10328406;28;20121;-72
2021/10/27 15:53:18;;;;;;;0.03;0.03;;;;;;;13.39;92.25;102083.00;10327726;28;20062;-72
2021/10/27 15:58:18;;;;;;;0.10;0.10;;;;;;;13.37;91.96;102091.16;10328378;28;20041;-72
2021/10/27 16:03:18;;;;;;;0.00;0.00;;;;;;;13.34;91.85;102091.44;10327318;28;20470;-72
2021/10/27 16:08:20;;;;;;;0.10;0.10;;;;;;;13.32;91.92;102093.41;10328641;28;20026;-72
2021/10/27 16:13:21;;;;;;;0.10;0.10;;;;;;;13.33;91.60;102095.13;10327345;28;20444;-72
2021/10/27 16:18:21;;;;;;;0.00;0.00;;;;;;;13.33;91.21;102098.63;10326086;28;20022;-72
2021/10/27 16:23:23;;;;;;;0.03;0.03;;;;;;;13.33;91.27;102108.50;10326266;28;20030;-72
2021/10/27 16:28:25;;;;;;;0.10;0.10;;;;;;;13.30;91.42;102103.44;10326380;28;20436;-72
2021/10/27 16:33:26;;;;;;;0.10;0.10;;;;;;;13.30;91.04;102103.44;10328142;28;20485;-71
2021/10/27 16:38:26;;;;;;;0.00;0.00;;;;;;;13.29;91.20;102112.44;10326501;28;20508;-72
2021/10/27 16:43:28;;;;;;;0.10;0.10;;;;;;;13.27;91.18;102109.94;10326397;28;20173;-72
2021/10/27 16:48:28;;;;;;;0.00;0.00;;;;;;;13.26;90.80;102107.38;10326181;28;20022;-72
2021/10/27 16:53:29;;;;;;;0.00;0.00;;;;;;;13.25;90.71;102111.03;10325618;28;20030;-72
2021/10/27 16:58:30;;;;;;;0.00;0.00;;;;;;;13.26;90.37;102104.72;10326539;28;20051;-72
2021/10/27 17:03:31;;;;;;;0.00;0.00;;;;;;;13.25;89.93;102119.06;10324983;28;20025;-72
2021/10/27 17:08:31;;;;;;;0.10;0.10;;;;;;;13.24;90.04;102114.69;10327251;28;20492;-72
2021/10/27 17:13:32;;;;;;;0.00;0.00;;;;;;;13.23;89.58;102113.84;10327282;28;20516;-72
2021/10/27 17:18:34;;;;;;;0.10;0.10;;;;;;;13.26;89.04;102126.13;10325932;28;20029;-72
2021/10/27 17:23:36;;;;;;;0.10;0.10;;;;;;;13.24;89.18;102128.91;10346876;22;20312;-67
2021/10/27 17:28:37;;;;;;;0.10;0.10;;;;;;;13.23;89.00;102137.06;10368284;28;20029;-67
2021/10/27 17:33:37;;;;;;;0.00;0.00;;;;;;;13.26;88.18;102136.81;10373337;28;20477;-67
2021/10/27 17:38:39;;;;;;;0.00;0.00;;;;;;;13.28;88.74;102148.22;10375216;28;20388;-67
2021/10/27 17:43:39;;;;;;;0.08;0.08;;;;;;;13.26;88.23;102147.53;10373792;28;20028;-67
2021/10/27 17:48:46;;;;;;;0.10;0.10;;;;;;;13.27;88.68;102151.91;10373437;28;20026;-66
2021/10/27 17:59:06;;;;;;;0.10;0.10;;;;;;;13.25;87.19;102143.13;10374172;28;20030;-67
2021/10/27 18:04:07;;;;;;;0.10;0.10;;;;;;;13.24;87.45;102153.00;10372036;28;20021;-67
2021/10/27 18:09:12;;;;;;;0.10;0.10;;;;;;;13.25;87.90;102148.47;10370658;28;20032;-67
2021/10/27 18:14:19;;;;;;;0.10;0.10;;;;;;;13.25;87.23;102148.47;10371582;28;20022;-67
2021/10/27 18:40:25;;;;;;;0.10;0.10;;;;;;;13.07;89.09;102149.22;10372562;28;20034;-65
2021/10/27 18:45:25;;;;;;;0.10;0.10;;;;;;;13.02;89.71;102148.81;10371098;28;20029;-66
2021/10/27 18:50:28;;;;;;;0.10;0.10;;;;;;;12.98;90.17;102147.41;10372260;28;20036;-68
2021/10/27 19:11:17;;;;;;;0.00;0.00;;;;;;;12.84;91.14;102151.34;10371040;28;20396;-66
2021/10/27 19:16:19;;;;;;;0.10;0.10;;;;;;;12.81;90.93;102145.47;10370633;28;20032;-66
2021/10/27 19:21:20;;;;;;;0.00;0.00;;;;;;;12.84;90.42;102145.16;10370174;28;20033;-66
2021/10/27 19:26:29;;;;;;;0.10;0.10;;;;;;;12.84;90.74;102139.81;10367451;28;20293;-66
2021/10/27 20:04:39;;;;;;;0.10;0.10;;;;;;;12.88;89.89;102142.06;10370493;28;20405;-66
2021/10/27 20:09:14;;;;;;;0.10;0.10;;;;;;;12.86;91.22;102132.50;10369089;28;20034;-68
2021/10/27 20:25:12;;;;;;;0.03;0.03;;;;;;;12.75;92.09;102138.00;10368934;28;20022;-66
2021/10/27 20:56:11;;;;;;;0.05;0.05;;;;;;;12.68;93.47;102143.91;10368813;28;20030;-66
2021/10/27 21:01:19;;;;;;;0.10;0.10;;;;;;;12.73;92.63;102148.81;10368536;28;20029;-66
2021/10/27 21:16:57;;;;;;;0.10;0.10;;;;;;;12.88;91.29;102139.38;10376047;28;20492;-66
2021/10/27 21:21:58;;;;;;;0.10;0.10;;;;;;;12.92;91.68;102142.63;10375759;28;20022;-66
2021/10/27 21:27:02;;;;;;;0.10;0.10;;;;;;;12.90;91.75;102140.09;10369854;28;20034;-66
2021/10/27 21:42:42;;;;;;;0.10;0.10;;;;;;;12.80;92.71;102133.91;10375199;28;20046;-66
2021/10/27 21:47:43;;;;;;;0.10;0.10;;;;;;;12.75;93.06;102129.97;10346539;28;20049;-66
2021/10/27 21:52:47;;;;;;;0.00;0.00;;;;;;;12.70;93.14;102119.69;10350972;28;20164;-66
2021/10/27 21:57:48;;;;;;;;;;;;;;;12.66;93.93;102120.97;10374866;28;20513;-67
2021/10/27 22:02:49;;;;;;;0.10;0.10;;;;;;;12.63;94.41;102122.09;10374680;28;19952;-67
2021/10/27 22:07:50;;;;;;;0.00;0.00;;;;;;;12.60;94.52;102106.34;10374555;28;20080;-67
2021/10/27 22:12:51;;;;;;;0.00;0.00;;;;;;;12.57;94.63;102106.63;10374566;28;20312;-67
2021/10/27 22:17:52;;;;;;;0.10;0.10;;;;;;;12.55;95.10;102105.91;10373483;28;20420;-67
2021/10/27 22:22:53;;;;;;;0.10;0.10;;;;;;;12.52;95.40;102108.03;10373243;28;20075;-67
2021/10/27 22:27:56;;;;;;;0.10;0.10;;;;;;;12.50;95.22;102110.00;10372973;28;20086;-67
2021/10/27 22:32:57;;;;;;;0.10;0.10;;;;;;;12.48;95.58;102110.16;10373691;28;20591;-67
2021/10/27 22:37:57;;;;;;;0.10;0.10;;;;;;;12.45;95.71;102108.59;10371371;28;20033;-66
2021/10/27 22:42:57;;;;;;;0.10;0.10;;;;;;;12.43;95.40;102107.88;10372503;28;20473;-67
2021/10/27 22:47:59;;;;;;;0.10;0.10;;;;;;;12.41;95.27;102109.00;10372445;28;20030;-66
2021/10/27 22:53:00;;;;;;;0.10;0.10;;;;;;;12.40;95.51;102113.50;10372247;28;20105;-67
2021/10/27 22:58:04;;;;;;;0.10;0.10;;;;;;;12.38;95.23;102117.31;10371709;28;20030;-67
2021/10/27 23:50:11;;;;;;;0.10;0.10;;;;;;;12.28;94.75;102111.13;10284696;28;20109;-69
